sensor_id;sensor_type;location;lat;lon;timestamp;P1;durP1;ratioP1;P2;durP2;ratioP2
71423;SDS011;59240;51.370;-0.486;2023-04-01T00:02:26;6.05;;;1.17;;
71423;SDS011;59240;51.370;-0.486;2023-04-01T00:04:53;6.05;;;1.42;;
71423;SDS011;59240;51.370;-0.486;2023-04-01T00:07:19;6.47;;;1.23;;
71423;SDS011;59240;51.370;-0.486;2023-04-01T00:09:46;6.45;;;1.20;;
71423;SDS011;59240;51.370;-0.486;2023-04-01T00:12:13;5.10;;;1.17;;
71423;SDS011;59240;51.370;-0.486;2023-04-01T00:14:39;5.97;;;1.40;;
71423;SDS011;59240;51.370;-0.486;2023-04-01T00:17:06;5.93;;;1.08;;
71423;SDS011;59240;51.370;-0.486;2023-04-01T00:19:33;4.80;;;0.90;;
71423;SDS011;59240;51.370;-0.486;2023-04-01T00:22:00;7.68;;;1.00;;
71423;SDS011;59240;51.370;-0.486;2023-04-01T00:24:26;4.83;;;0.90;;
71423;SDS011;59240;51.370;-0.486;2023-04-01T00:26:53;5.82;;;1.38;;
71423;SDS011;59240;51.370;-0.486;2023-04-01T00:29:20;7.10;;;1.40;;
71423;SDS011;59240;51.370;-0.486;2023-04-01T00:31:47;8.32;;;1.38;;
71423;SDS011;59240;51.370;-0.486;2023-04-01T00:34:15;6.40;;;1.85;;
71423;SDS011;59240;51.370;-0.486;2023-04-01T00:36:42;7.03;;;1.70;;
71423;SDS011;59240;51.370;-0.486;2023-04-01T00:39:08;5.65;;;1.45;;
71423;SDS011;59240;51.370;-0.486;2023-04-01T00:41:35;8.60;;;1.92;;
71423;SDS011;59240;51.370;-0.486;2023-04-01T00:44:22;8.15;;;1.88;;
71423;SDS011;59240;51.370;-0.486;2023-04-01T00:46:50;8.45;;;1.90;;
71423;SDS011;59240;51.370;-0.486;2023-04-01T00:49:20;5.80;;;1.70;;
71423;SDS011;59240;51.370;-0.486;2023-04-01T00:51:51;5.38;;;1.80;;
71423;SDS011;59240;51.370;-0.486;2023-04-01T00:54:22;8.60;;;1.75;;
71423;SDS011;59240;51.370;-0.486;2023-04-01T00:56:52;8.65;;;2.38;;
71423;SDS011;59240;51.370;-0.486;2023-04-01T00:59:23;6.88;;;1.92;;
71423;SDS011;59240;51.370;-0.486;2023-04-01T01:01:53;8.57;;;2.30;;
71423;SDS011;59240;51.370;-0.486;2023-04-01T01:04:21;8.18;;;2.22;;
71423;SDS011;59240;51.370;-0.486;2023-04-01T01:12:23;8.07;;;2.40;;
71423;SDS011;59240;51.370;-0.486;2023-04-01T01:26:59;7.78;;;2.55;;
71423;SDS011;59240;51.370;-0.486;2023-04-01T01:37:55;8.68;;;2.80;;
71423;SDS011;59240;51.370;-0.486;2023-04-01T01:40:26;8.10;;;2.45;;
71423;SDS011;59240;51.370;-0.486;2023-04-01T01:42:56;8.00;;;2.73;;
71423;SDS011;59240;51.370;-0.486;2023-04-01T01:45:26;9.80;;;2.70;;
71423;SDS011;59240;51.370;-0.486;2023-04-01T01:47:54;8.20;;;2.45;;
71423;SDS011;59240;51.370;-0.486;2023-04-01T01:50:24;10.68;;;3.05;;
71423;SDS011;59240;51.370;-0.486;2023-04-01T01:53:00;7.85;;;2.40;;
71423;SDS011;59240;51.370;-0.486;2023-04-01T01:55:33;9.13;;;2.70;;
71423;SDS011;59240;51.370;-0.486;2023-04-01T02:00:50;9.13;;;2.85;;
71423;SDS011;59240;51.370;-0.486;2023-04-01T02:03:21;11.93;;;2.67;;
71423;SDS011;59240;51.370;-0.486;2023-04-01T02:05:52;8.93;;;2.55;;
71423;SDS011;59240;51.370;-0.486;2023-04-01T02:08:25;11.67;;;2.70;;
71423;SDS011;59240;51.370;-0.486;2023-04-01T02:11:01;7.65;;;2.65;;
71423;SDS011;59240;51.370;-0.486;2023-04-01T02:13:38;8.50;;;2.45;;
71423;SDS011;59240;51.370;-0.486;2023-04-01T02:16:15;6.90;;;1.88;;
71423;SDS011;59240;51.370;-0.486;2023-04-01T02:18:48;8.02;;;2.17;;
71423;SDS011;59240;51.370;-0.486;2023-04-01T02:21:19;8.93;;;2.10;;
71423;SDS011;59240;51.370;-0.486;2023-04-01T02:23:48;6.57;;;1.98;;
71423;SDS011;59240;51.370;-0.486;2023-04-01T02:26:16;9.70;;;1.85;;
71423;SDS011;59240;51.370;-0.486;2023-04-01T02:28:43;7.18;;;1.92;;
71423;SDS011;59240;51.370;-0.486;2023-04-01T02:31:12;7.47;;;2.08;;
71423;SDS011;59240;51.370;-0.486;2023-04-01T02:33:41;5.57;;;1.67;;
71423;SDS011;59240;51.370;-0.486;2023-04-01T02:36:10;7.57;;;1.85;;
71423;SDS011;59240;51.370;-0.486;2023-04-01T02:38:39;7.03;;;1.90;;
71423;SDS011;59240;51.370;-0.486;2023-04-01T02:41:07;7.00;;;1.80;;
71423;SDS011;59240;51.370;-0.486;2023-04-01T02:43:33;9.05;;;2.30;;
71423;SDS011;59240;51.370;-0.486;2023-04-01T02:46:00;6.97;;;2.10;;
71423;SDS011;59240;51.370;-0.486;2023-04-01T02:48:28;7.05;;;1.77;;
71423;SDS011;59240;51.370;-0.486;2023-04-01T02:50:55;7.05;;;2.08;;
71423;SDS011;59240;51.370;-0.486;2023-04-01T02:53:22;7.25;;;2.30;;
71423;SDS011;59240;51.370;-0.486;2023-04-01T02:55:49;7.22;;;2.03;;
71423;SDS011;59240;51.370;-0.486;2023-04-01T02:58:18;7.40;;;1.70;;
71423;SDS011;59240;51.370;-0.486;2023-04-01T03:00:45;5.75;;;1.52;;
71423;SDS011;59240;51.370;-0.486;2023-04-01T03:03:13;6.85;;;1.60;;
71423;SDS011;59240;51.370;-0.486;2023-04-01T03:05:40;8.70;;;1.65;;
71423;SDS011;59240;51.370;-0.486;2023-04-01T03:08:07;6.20;;;1.70;;
71423;SDS011;59240;51.370;-0.486;2023-04-01T03:10:33;8.27;;;1.97;;
71423;SDS011;59240;51.370;-0.486;2023-04-01T03:13:01;5.47;;;1.67;;
71423;SDS011;59240;51.370;-0.486;2023-04-01T03:15:27;6.43;;;2.00;;
71423;SDS011;59240;51.370;-0.486;2023-04-01T03:17:54;6.88;;;1.98;;
71423;SDS011;59240;51.370;-0.486;2023-04-01T03:20:20;8.98;;;2.30;;
71423;SDS011;59240;51.370;-0.486;2023-04-01T03:22:47;7.60;;;2.23;;
71423;SDS011;59240;51.370;-0.486;2023-04-01T03:25:14;8.30;;;2.17;;
71423;SDS011;59240;51.370;-0.486;2023-04-01T03:27:41;6.93;;;2.05;;
71423;SDS011;59240;51.370;-0.486;2023-04-01T03:30:08;5.40;;;1.60;;
71423;SDS011;59240;51.370;-0.486;2023-04-01T03:32:35;8.57;;;2.80;;
71423;SDS011;59240;51.370;-0.486;2023-04-01T03:35:03;7.07;;;2.50;;
71423;SDS011;59240;51.370;-0.486;2023-04-01T03:37:31;7.80;;;2.60;;
71423;SDS011;59240;51.370;-0.486;2023-04-01T03:39:58;7.30;;;2.67;;
71423;SDS011;59240;51.370;-0.486;2023-04-01T03:42:24;8.15;;;2.92;;
71423;SDS011;59240;51.370;-0.486;2023-04-01T03:44:52;8.40;;;3.17;;
71423;SDS011;59240;51.370;-0.486;2023-04-01T03:47:18;7.70;;;2.90;;
71423;SDS011;59240;51.370;-0.486;2023-04-01T03:49:45;8.95;;;3.50;;
71423;SDS011;59240;51.370;-0.486;2023-04-01T03:52:12;10.15;;;3.15;;
71423;SDS011;59240;51.370;-0.486;2023-04-01T03:54:39;8.50;;;2.88;;
71423;SDS011;59240;51.370;-0.486;2023-04-01T03:57:05;9.20;;;3.60;;
71423;SDS011;59240;51.370;-0.486;2023-04-01T03:59:32;9.13;;;3.30;;
71423;SDS011;59240;51.370;-0.486;2023-04-01T04:01:59;9.40;;;3.40;;
71423;SDS011;59240;51.370;-0.486;2023-04-01T04:04:26;10.45;;;3.80;;
71423;SDS011;59240;51.370;-0.486;2023-04-01T04:06:53;10.77;;;3.65;;
71423;SDS011;59240;51.370;-0.486;2023-04-01T04:09:21;10.32;;;3.33;;
71423;SDS011;59240;51.370;-0.486;2023-04-01T04:11:48;9.17;;;3.43;;
71423;SDS011;59240;51.370;-0.486;2023-04-01T04:14:15;10.93;;;3.25;;
71423;SDS011;59240;51.370;-0.486;2023-04-01T04:16:42;11.43;;;3.65;;
71423;SDS011;59240;51.370;-0.486;2023-04-01T04:19:09;8.43;;;2.60;;
71423;SDS011;59240;51.370;-0.486;2023-04-01T04:21:36;11.88;;;2.88;;
71423;SDS011;59240;51.370;-0.486;2023-04-01T04:24:03;9.20;;;3.60;;
71423;SDS011;59240;51.370;-0.486;2023-04-01T04:26:29;10.93;;;3.58;;
71423;SDS011;59240;51.370;-0.486;2023-04-01T04:28:56;12.05;;;3.47;;
71423;SDS011;59240;51.370;-0.486;2023-04-01T04:31:24;13.73;;;4.18;;
71423;SDS011;59240;51.370;-0.486;2023-04-01T04:33:52;13.50;;;4.25;;
71423;SDS011;59240;51.370;-0.486;2023-04-01T04:36:19;11.97;;;3.90;;
71423;SDS011;59240;51.370;-0.486;2023-04-01T04:38:47;11.70;;;4.30;;
71423;SDS011;59240;51.370;-0.486;2023-04-01T04:41:15;11.63;;;3.65;;
71423;SDS011;59240;51.370;-0.486;2023-04-01T04:43:50;10.10;;;3.92;;
71423;SDS011;59240;51.370;-0.486;2023-04-01T04:46:20;10.25;;;3.65;;
71423;SDS011;59240;51.370;-0.486;2023-04-01T04:48:47;10.90;;;4.30;;
71423;SDS011;59240;51.370;-0.486;2023-04-01T04:51:15;9.52;;;3.63;;
71423;SDS011;59240;51.370;-0.486;2023-04-01T04:53:43;9.32;;;3.67;;
71423;SDS011;59240;51.370;-0.486;2023-04-01T04:56:09;10.32;;;3.63;;
71423;SDS011;59240;51.370;-0.486;2023-04-01T04:58:37;11.45;;;4.00;;
71423;SDS011;59240;51.370;-0.486;2023-04-01T05:01:05;10.50;;;3.87;;
71423;SDS011;59240;51.370;-0.486;2023-04-01T05:03:36;11.90;;;4.10;;
71423;SDS011;59240;51.370;-0.486;2023-04-01T05:06:03;10.52;;;4.18;;
71423;SDS011;59240;51.370;-0.486;2023-04-01T05:08:31;11.50;;;3.58;;
71423;SDS011;59240;51.370;-0.486;2023-04-01T05:10:59;12.18;;;4.53;;
71423;SDS011;59240;51.370;-0.486;2023-04-01T05:13:28;11.17;;;3.23;;
71423;SDS011;59240;51.370;-0.486;2023-04-01T05:15:55;10.23;;;4.15;;
71423;SDS011;59240;51.370;-0.486;2023-04-01T05:18:21;12.68;;;3.95;;
71423;SDS011;59240;51.370;-0.486;2023-04-01T05:20:49;11.32;;;3.38;;
71423;SDS011;59240;51.370;-0.486;2023-04-01T05:23:17;10.95;;;4.65;;
71423;SDS011;59240;51.370;-0.486;2023-04-01T05:25:44;11.93;;;4.23;;
71423;SDS011;59240;51.370;-0.486;2023-04-01T05:28:11;9.73;;;4.20;;
71423;SDS011;59240;51.370;-0.486;2023-04-01T05:30:41;10.10;;;3.30;;
71423;SDS011;59240;51.370;-0.486;2023-04-01T05:33:09;11.38;;;3.53;;
71423;SDS011;59240;51.370;-0.486;2023-04-01T05:35:37;10.00;;;2.90;;
71423;SDS011;59240;51.370;-0.486;2023-04-01T05:38:04;9.40;;;2.90;;
71423;SDS011;59240;51.370;-0.486;2023-04-01T05:40:34;7.55;;;2.08;;
71423;SDS011;59240;51.370;-0.486;2023-04-01T05:43:01;6.88;;;2.22;;
71423;SDS011;59240;51.370;-0.486;2023-04-01T05:45:27;7.50;;;2.35;;
71423;SDS011;59240;51.370;-0.486;2023-04-01T05:47:54;6.68;;;2.20;;
71423;SDS011;59240;51.370;-0.486;2023-04-01T05:50:21;10.27;;;2.27;;
71423;SDS011;59240;51.370;-0.486;2023-04-01T05:52:48;7.93;;;2.38;;
71423;SDS011;59240;51.370;-0.486;2023-04-01T05:55:14;8.02;;;2.15;;
71423;SDS011;59240;51.370;-0.486;2023-04-01T05:57:41;7.18;;;2.15;;
71423;SDS011;59240;51.370;-0.486;2023-04-01T06:00:08;8.73;;;2.20;;
71423;SDS011;59240;51.370;-0.486;2023-04-01T06:02:35;8.93;;;2.47;;
71423;SDS011;59240;51.370;-0.486;2023-04-01T06:05:23;8.73;;;2.45;;
71423;SDS011;59240;51.370;-0.486;2023-04-01T06:07:55;6.95;;;2.08;;
71423;SDS011;59240;51.370;-0.486;2023-04-01T06:13:26;6.90;;;2.35;;
71423;SDS011;59240;51.370;-0.486;2023-04-01T06:21:37;9.88;;;2.78;;
71423;SDS011;59240;51.370;-0.486;2023-04-01T06:24:22;8.27;;;2.83;;
71423;SDS011;59240;51.370;-0.486;2023-04-01T06:29:43;9.77;;;2.70;;
71423;SDS011;59240;51.370;-0.486;2023-04-01T06:32:28;7.70;;;2.78;;
71423;SDS011;59240;51.370;-0.486;2023-04-01T06:38:39;6.97;;;2.70;;
71423;SDS011;59240;51.370;-0.486;2023-04-01T06:44:14;10.23;;;2.67;;
71423;SDS011;59240;51.370;-0.486;2023-04-01T06:49:44;11.73;;;3.47;;
71423;SDS011;59240;51.370;-0.486;2023-04-01T06:52:25;9.68;;;3.20;;
71423;SDS011;59240;51.370;-0.486;2023-04-01T06:55:04;9.30;;;2.90;;
71423;SDS011;59240;51.370;-0.486;2023-04-01T06:57:41;8.77;;;3.17;;
71423;SDS011;59240;51.370;-0.486;2023-04-01T07:00:23;7.68;;;2.80;;
71423;SDS011;59240;51.370;-0.486;2023-04-01T07:03:04;9.57;;;3.45;;
71423;SDS011;59240;51.370;-0.486;2023-04-01T07:05:38;9.98;;;3.22;;
71423;SDS011;59240;51.370;-0.486;2023-04-01T07:08:08;8.52;;;2.20;;
71423;SDS011;59240;51.370;-0.486;2023-04-01T07:10:44;7.57;;;2.80;;
71423;SDS011;59240;51.370;-0.486;2023-04-01T07:13:19;7.10;;;2.13;;
71423;SDS011;59240;51.370;-0.486;2023-04-01T07:16:01;7.68;;;2.30;;
71423;SDS011;59240;51.370;-0.486;2023-04-01T07:18:41;8.50;;;2.80;;
71423;SDS011;59240;51.370;-0.486;2023-04-01T07:23:51;8.37;;;2.43;;
71423;SDS011;59240;51.370;-0.486;2023-04-01T07:26:24;9.05;;;2.80;;
71423;SDS011;59240;51.370;-0.486;2023-04-01T07:28:51;7.95;;;2.55;;
71423;SDS011;59240;51.370;-0.486;2023-04-01T07:34:22;7.78;;;2.42;;
71423;SDS011;59240;51.370;-0.486;2023-04-01T07:37:04;8.43;;;2.40;;
71423;SDS011;59240;51.370;-0.486;2023-04-01T07:47:58;8.40;;;2.17;;
71423;SDS011;59240;51.370;-0.486;2023-04-01T07:51:07;8.87;;;2.70;;
71423;SDS011;59240;51.370;-0.486;2023-04-01T07:56:27;7.60;;;2.30;;
71423;SDS011;59240;51.370;-0.486;2023-04-01T08:01:40;7.38;;;2.03;;
71423;SDS011;59240;51.370;-0.486;2023-04-01T08:04:51;7.13;;;2.27;;
71423;SDS011;59240;51.370;-0.486;2023-04-01T08:18:16;7.17;;;2.40;;
71423;SDS011;59240;51.370;-0.486;2023-04-01T08:21:04;8.57;;;2.78;;
71423;SDS011;59240;51.370;-0.486;2023-04-01T08:23:46;8.60;;;2.80;;
71423;SDS011;59240;51.370;-0.486;2023-04-01T08:29:22;10.25;;;2.30;;
71423;SDS011;59240;51.370;-0.486;2023-04-01T08:32:07;9.03;;;2.20;;
71423;SDS011;59240;51.370;-0.486;2023-04-01T08:34:42;8.13;;;2.33;;
71423;SDS011;59240;51.370;-0.486;2023-04-01T08:37:19;7.50;;;2.40;;
71423;SDS011;59240;51.370;-0.486;2023-04-01T08:39:51;9.18;;;3.13;;
71423;SDS011;59240;51.370;-0.486;2023-04-01T08:53:41;6.40;;;1.95;;
71423;SDS011;59240;51.370;-0.486;2023-04-01T09:07:01;8.90;;;1.70;;
71423;SDS011;59240;51.370;-0.486;2023-04-01T09:09:42;5.57;;;1.60;;
71423;SDS011;59240;51.370;-0.486;2023-04-01T09:12:39;8.13;;;2.17;;
71423;SDS011;59240;51.370;-0.486;2023-04-01T09:15:29;8.15;;;1.80;;
71423;SDS011;59240;51.370;-0.486;2023-04-01T09:27:02;6.47;;;1.90;;
71423;SDS011;59240;51.370;-0.486;2023-04-01T09:32:38;8.50;;;2.08;;
71423;SDS011;59240;51.370;-0.486;2023-04-01T09:35:14;7.63;;;1.88;;
71423;SDS011;59240;51.370;-0.486;2023-04-01T10:09:39;7.10;;;2.40;;
71423;SDS011;59240;51.370;-0.486;2023-04-01T10:12:36;7.40;;;2.08;;
71423;SDS011;59240;51.370;-0.486;2023-04-01T10:18:23;7.88;;;2.65;;
71423;SDS011;59240;51.370;-0.486;2023-04-01T10:41:43;7.78;;;2.20;;
71423;SDS011;59240;51.370;-0.486;2023-04-01T11:13:33;10.13;;;3.15;;
71423;SDS011;59240;51.370;-0.486;2023-04-01T11:31:46;8.40;;;2.60;;
71423;SDS011;59240;51.370;-0.486;2023-04-01T11:34:37;7.50;;;2.28;;
71423;SDS011;59240;51.370;-0.486;2023-04-01T11:43:08;9.55;;;2.47;;
71423;SDS011;59240;51.370;-0.486;2023-04-01T11:46:12;8.10;;;2.83;;
71423;SDS011;59240;51.370;-0.486;2023-04-01T11:59:52;10.13;;;2.60;;
71423;SDS011;59240;51.370;-0.486;2023-04-01T12:13:45;9.32;;;2.38;;
71423;SDS011;59240;51.370;-0.486;2023-04-01T12:28:02;7.05;;;2.25;;
71423;SDS011;59240;51.370;-0.486;2023-04-01T12:36:43;6.15;;;2.17;;
71423;SDS011;59240;51.370;-0.486;2023-04-01T12:39:44;6.82;;;2.00;;
71423;SDS011;59240;51.370;-0.486;2023-04-01T12:59:19;9.48;;;2.50;;
71423;SDS011;59240;51.370;-0.486;2023-04-01T13:08:06;9.27;;;2.15;;
71423;SDS011;59240;51.370;-0.486;2023-04-01T13:11:22;5.88;;;1.52;;
71423;SDS011;59240;51.370;-0.486;2023-04-01T13:13:57;6.82;;;1.70;;
71423;SDS011;59240;51.370;-0.486;2023-04-01T13:16:29;7.17;;;1.70;;
71423;SDS011;59240;51.370;-0.486;2023-04-01T13:19:03;6.75;;;1.70;;
71423;SDS011;59240;51.370;-0.486;2023-04-01T13:27:14;6.60;;;1.83;;
71423;SDS011;59240;51.370;-0.486;2023-04-01T13:32:50;6.55;;;1.92;;
71423;SDS011;59240;51.370;-0.486;2023-04-01T13:35:46;7.82;;;2.13;;
71423;SDS011;59240;51.370;-0.486;2023-04-01T13:47:26;9.82;;;1.88;;
71423;SDS011;59240;51.370;-0.486;2023-04-01T13:52:50;6.50;;;1.50;;
71423;SDS011;59240;51.370;-0.486;2023-04-01T14:03:37;6.85;;;2.00;;
71423;SDS011;59240;51.370;-0.486;2023-04-01T14:09:44;8.13;;;1.88;;
71423;SDS011;59240;51.370;-0.486;2023-04-01T14:12:20;7.67;;;2.70;;
71423;SDS011;59240;51.370;-0.486;2023-04-01T14:15:01;8.25;;;2.53;;
71423;SDS011;59240;51.370;-0.486;2023-04-01T14:26:35;5.70;;;1.90;;
71423;SDS011;59240;51.370;-0.486;2023-04-01T14:35:15;11.30;;;2.60;;
71423;SDS011;59240;51.370;-0.486;2023-04-01T14:41:06;9.20;;;2.53;;
71423;SDS011;59240;51.370;-0.486;2023-04-01T14:43:59;7.07;;;2.60;;
71423;SDS011;59240;51.370;-0.486;2023-04-01T14:49:47;5.03;;;1.50;;
71423;SDS011;59240;51.370;-0.486;2023-04-01T14:52:28;5.35;;;1.52;;
71423;SDS011;59240;51.370;-0.486;2023-04-01T14:55:10;5.90;;;1.90;;
71423;SDS011;59240;51.370;-0.486;2023-04-01T15:17:28;7.90;;;1.58;;
71423;SDS011;59240;51.370;-0.486;2023-04-01T15:22:55;7.00;;;2.30;;
71423;SDS011;59240;51.370;-0.486;2023-04-01T15:25:36;6.65;;;2.38;;
71423;SDS011;59240;51.370;-0.486;2023-04-01T15:28:21;6.68;;;1.98;;
71423;SDS011;59240;51.370;-0.486;2023-04-01T15:31:11;6.07;;;1.75;;
71423;SDS011;59240;51.370;-0.486;2023-04-01T15:39:51;7.85;;;1.90;;
71423;SDS011;59240;51.370;-0.486;2023-04-01T15:42:34;7.78;;;2.22;;
71423;SDS011;59240;51.370;-0.486;2023-04-01T15:48:06;5.65;;;2.25;;
71423;SDS011;59240;51.370;-0.486;2023-04-01T15:50:51;7.40;;;2.40;;
71423;SDS011;59240;51.370;-0.486;2023-04-01T15:53:34;6.65;;;1.95;;
71423;SDS011;59240;51.370;-0.486;2023-04-01T15:58:59;8.75;;;2.53;;
71423;SDS011;59240;51.370;-0.486;2023-04-01T16:01:44;6.60;;;2.22;;
71423;SDS011;59240;51.370;-0.486;2023-04-01T16:10:16;9.02;;;1.92;;
71423;SDS011;59240;51.370;-0.486;2023-04-01T16:23:58;7.32;;;2.30;;
71423;SDS011;59240;51.370;-0.486;2023-04-01T16:26:37;10.00;;;2.13;;
71423;SDS011;59240;51.370;-0.486;2023-04-01T16:35:05;8.70;;;2.47;;
71423;SDS011;59240;51.370;-0.486;2023-04-01T16:41:32;7.20;;;2.40;;
71423;SDS011;59240;51.370;-0.486;2023-04-01T16:47:12;7.07;;;2.50;;
71423;SDS011;59240;51.370;-0.486;2023-04-01T16:53:30;7.90;;;2.20;;
71423;SDS011;59240;51.370;-0.486;2023-04-01T16:57:01;6.50;;;2.08;;
71423;SDS011;59240;51.370;-0.486;2023-04-01T16:59:48;7.60;;;2.88;;
71423;SDS011;59240;51.370;-0.486;2023-04-01T17:02:26;8.07;;;2.00;;
71423;SDS011;59240;51.370;-0.486;2023-04-01T17:05:08;9.65;;;2.83;;
71423;SDS011;59240;51.370;-0.486;2023-04-01T17:08:09;7.78;;;2.47;;
71423;SDS011;59240;51.370;-0.486;2023-04-01T17:11:24;7.18;;;1.90;;
71423;SDS011;59240;51.370;-0.486;2023-04-01T17:17:45;9.77;;;2.60;;
71423;SDS011;59240;51.370;-0.486;2023-04-01T17:23:29;6.68;;;2.00;;
71423;SDS011;59240;51.370;-0.486;2023-04-01T17:32:05;9.93;;;2.53;;
71423;SDS011;59240;51.370;-0.486;2023-04-01T17:34:45;6.43;;;2.42;;
71423;SDS011;59240;51.370;-0.486;2023-04-01T17:40:33;8.07;;;2.03;;
71423;SDS011;59240;51.370;-0.486;2023-04-01T17:50:02;9.73;;;2.45;;
71423;SDS011;59240;51.370;-0.486;2023-04-01T17:52:48;7.70;;;2.45;;
71423;SDS011;59240;51.370;-0.486;2023-04-01T17:56:01;10.63;;;1.50;;
71423;SDS011;59240;51.370;-0.486;2023-04-01T18:01:45;8.33;;;2.13;;
71423;SDS011;59240;51.370;-0.486;2023-04-01T18:08:12;8.18;;;1.88;;
71423;SDS011;59240;51.370;-0.486;2023-04-01T18:18:05;6.20;;;1.40;;
71423;SDS011;59240;51.370;-0.486;2023-04-01T18:21:45;5.25;;;1.30;;
71423;SDS011;59240;51.370;-0.486;2023-04-01T18:31:17;5.55;;;1.70;;
71423;SDS011;59240;51.370;-0.486;2023-04-01T18:37:24;5.97;;;1.50;;
71423;SDS011;59240;51.370;-0.486;2023-04-01T18:40:10;5.10;;;1.23;;
71423;SDS011;59240;51.370;-0.486;2023-04-01T18:43:00;5.43;;;1.30;;
71423;SDS011;59240;51.370;-0.486;2023-04-01T18:56:02;4.50;;;1.48;;
71423;SDS011;59240;51.370;-0.486;2023-04-01T19:07:56;6.00;;;1.77;;
71423;SDS011;59240;51.370;-0.486;2023-04-01T19:14:13;6.47;;;1.60;;
71423;SDS011;59240;51.370;-0.486;2023-04-01T19:20:02;5.90;;;1.37;;
71423;SDS011;59240;51.370;-0.486;2023-04-01T19:29:24;5.97;;;1.15;;
71423;SDS011;59240;51.370;-0.486;2023-04-01T19:35:19;4.87;;;1.20;;
71423;SDS011;59240;51.370;-0.486;2023-04-01T19:38:31;4.15;;;1.02;;
71423;SDS011;59240;51.370;-0.486;2023-04-01T19:44:36;5.03;;;1.10;;
71423;SDS011;59240;51.370;-0.486;2023-04-01T19:53:18;4.22;;;1.00;;
71423;SDS011;59240;51.370;-0.486;2023-04-01T20:07:24;5.80;;;1.55;;
71423;SDS011;59240;51.370;-0.486;2023-04-01T20:13:14;5.97;;;1.30;;
71423;SDS011;59240;51.370;-0.486;2023-04-01T20:16:07;9.30;;;1.85;;
71423;SDS011;59240;51.370;-0.486;2023-04-01T20:19:04;6.30;;;1.87;;
71423;SDS011;59240;51.370;-0.486;2023-04-01T20:24:58;8.80;;;2.58;;
71423;SDS011;59240;51.370;-0.486;2023-04-01T20:27:54;7.30;;;2.20;;
71423;SDS011;59240;51.370;-0.486;2023-04-01T20:33:57;5.83;;;1.97;;
71423;SDS011;59240;51.370;-0.486;2023-04-01T20:37:00;7.18;;;2.40;;
71423;SDS011;59240;51.370;-0.486;2023-04-01T20:46:06;13.40;;;2.45;;
71423;SDS011;59240;51.370;-0.486;2023-04-01T20:48:52;8.77;;;2.80;;
71423;SDS011;59240;51.370;-0.486;2023-04-01T20:51:23;8.90;;;3.08;;
71423;SDS011;59240;51.370;-0.486;2023-04-01T20:57:04;9.07;;;2.70;;
71423;SDS011;59240;51.370;-0.486;2023-04-01T20:59:47;7.68;;;1.95;;
71423;SDS011;59240;51.370;-0.486;2023-04-01T21:02:47;7.53;;;2.17;;
71423;SDS011;59240;51.370;-0.486;2023-04-01T21:05:33;7.28;;;2.30;;
71423;SDS011;59240;51.370;-0.486;2023-04-01T21:08:31;6.63;;;2.15;;
71423;SDS011;59240;51.370;-0.486;2023-04-01T21:35:00;5.10;;;1.45;;
71423;SDS011;59240;51.370;-0.486;2023-04-01T22:00:30;5.80;;;1.13;;
71423;SDS011;59240;51.370;-0.486;2023-04-01T22:03:39;4.35;;;0.90;;
71423;SDS011;59240;51.370;-0.486;2023-04-01T22:06:37;8.77;;;1.02;;
71423;SDS011;59240;51.370;-0.486;2023-04-01T22:09:35;5.70;;;1.40;;
71423;SDS011;59240;51.370;-0.486;2023-04-01T22:18:37;5.25;;;0.73;;
71423;SDS011;59240;51.370;-0.486;2023-04-01T22:21:13;4.97;;;0.70;;
71423;SDS011;59240;51.370;-0.486;2023-04-01T22:29:20;5.13;;;0.83;;
71423;SDS011;59240;51.370;-0.486;2023-04-01T22:32:08;6.00;;;0.70;;
71423;SDS011;59240;51.370;-0.486;2023-04-01T22:34:51;3.60;;;0.47;;
71423;SDS011;59240;51.370;-0.486;2023-04-01T22:37:40;3.53;;;0.68;;
71423;SDS011;59240;51.370;-0.486;2023-04-01T22:40:29;5.07;;;0.80;;
71423;SDS011;59240;51.370;-0.486;2023-04-01T22:43:08;5.17;;;0.60;;
71423;SDS011;59240;51.370;-0.486;2023-04-01T22:45:42;3.47;;;0.50;;
71423;SDS011;59240;51.370;-0.486;2023-04-01T22:51:22;3.75;;;0.60;;
71423;SDS011;59240;51.370;-0.486;2023-04-01T22:59:42;3.90;;;0.40;;
71423;SDS011;59240;51.370;-0.486;2023-04-01T23:05:10;5.90;;;0.93;;
71423;SDS011;59240;51.370;-0.486;2023-04-01T23:07:45;6.85;;;0.90;;
71423;SDS011;59240;51.370;-0.486;2023-04-01T23:13:18;4.55;;;0.60;;
71423;SDS011;59240;51.370;-0.486;2023-04-01T23:15:55;3.55;;;0.60;;
71423;SDS011;59240;51.370;-0.486;2023-04-01T23:27:08;3.28;;;0.40;;
71423;SDS011;59240;51.370;-0.486;2023-04-01T23:29:43;4.38;;;0.50;;
71423;SDS011;59240;51.370;-0.486;2023-04-01T23:32:19;3.72;;;0.68;;
71423;SDS011;59240;51.370;-0.486;2023-04-01T23:34:56;6.35;;;1.00;;
71423;SDS011;59240;51.370;-0.486;2023-04-01T23:37:28;3.73;;;0.73;;
71423;SDS011;59240;51.370;-0.486;2023-04-01T23:39:57;4.60;;;0.93;;
71423;SDS011;59240;51.370;-0.486;2023-04-01T23:42:31;7.88;;;1.15;;
71423;SDS011;59240;51.370;-0.486;2023-04-01T23:45:05;4.07;;;0.88;;
71423;SDS011;59240;51.370;-0.486;2023-04-01T23:47:39;5.13;;;1.05;;
71423;SDS011;59240;51.370;-0.486;2023-04-01T23:50:14;5.33;;;1.13;;
71423;SDS011;59240;51.370;-0.486;2023-04-01T23:52:48;5.10;;;1.10;;
71423;SDS011;59240;51.370;-0.486;2023-04-01T23:55:27;6.80;;;1.20;;
71423;SDS011;59240;51.370;-0.486;2023-04-01T23:58:06;4.55;;;0.90;;
